Time;durP1;ratioP1;P1;durP2;ratioP2;P2;SDS_P1;SDS_P2;PMS_P1;PMS_P2;Temp;Humidity;BMP_temperature;BMP_pressure;BME280_temperature;BME280_humidity;BME280_pressure;Samples;Min_cycle;Max_cycle;Signal;HPM_P1;HPM_P2
2022/09/27 00:00:40;;;;;;;5.07;4.22;;;;;;;14.11;67.67;97732.16;4929082;29;20060;-69
2022/09/27 00:03:08;;;;;;;4.80;3.50;;;;;;;13.18;67.30;97604.34;4928865;29;20052;-69
2022/09/27 00:05:35;;;;;;;5.75;4.22;;;;;;;14.15;67.71;97728.22;4929071;29;20066;-69
2022/09/27 00:08:04;;;;;;;5.10;3.70;;;;;;;14.16;67.58;97721.91;4928734;29;20060;-69
2022/09/27 00:10:31;;;;;;;4.45;3.38;;;;;;;14.17;67.85;97723.56;4928828;29;20066;-69
2022/09/27 00:13:00;;;;;;;4.70;3.78;;;;;;;14.19;67.76;97726.94;4928562;29;20343;-69
2022/09/27 00:15:27;;;;;;;4.65;3.80;;;;;;;14.17;68.03;97717.41;4928647;29;20071;-69
2022/09/27 00:17:54;;;;;;;6.35;3.83;;;;;;;14.19;67.66;97713.63;4928557;29;20071;-69
2022/09/27 00:20:22;;;;;;;6.10;5.00;;;;;;;14.18;68.12;97705.78;4928717;29;20083;-69
2022/09/27 00:22:49;;;;;;;6.22;4.80;;;;;;;14.19;67.37;97699.44;4928890;29;20067;-69
2022/09/27 00:25:17;;;;;;;4.80;3.60;;;;;;;14.06;67.30;97670.50;4928603;29;20083;-69
2022/09/27 00:27:45;;;;;;;5.95;4.65;;;;;;;14.21;67.50;97700.16;4928938;29;20316;-69
2022/09/27 00:30:14;;;;;;;5.18;4.35;;;;;;;14.24;67.64;97691.84;4928707;29;20207;-69
2022/09/27 00:32:41;;;;;;;4.30;3.70;;;;;;;14.18;68.03;97689.78;4928873;29;20071;-69
2022/09/27 00:35:09;;;;;;;7.80;6.15;;;;;;;14.16;67.81;97689.09;4928727;29;20063;-69
2022/09/27 00:37:36;;;;;;;6.85;5.22;;;;;;;14.20;67.83;97686.00;4928816;29;20056;-69
2022/09/27 00:40:04;;;;;;;6.47;4.18;;;;;;;14.14;67.37;97673.25;4928975;29;20067;-70
2022/09/27 00:42:31;;;;;;;4.63;3.80;;;;;;;14.12;67.79;97661.91;4928852;29;20067;-72
2022/09/27 00:45:12;;;;;;;6.30;3.67;;;;;;;13.97;67.80;97628.75;4928632;29;20343;-69
2022/09/27 00:47:50;;;;;;;5.45;3.80;;;;;;;14.11;67.51;97666.41;4928736;29;20055;-70
2022/09/27 00:50:24;;;;;;;4.35;3.05;;;;;;;14.03;67.71;97663.63;4928544;29;20239;-69
2022/09/27 00:53:00;;;;;;;4.80;3.80;;;;;;;13.99;68.11;97648.94;4928849;29;20060;-69
2022/09/27 00:55:32;;;;;;;6.72;4.32;;;;;;;14.00;68.24;97661.25;4928760;29;20236;-69
2022/09/27 00:57:59;;;;;;;4.95;3.78;;;;;;;13.90;68.22;97655.13;4928762;29;20060;-69
2022/09/27 01:00:27;;;;;;;4.72;3.58;;;;;;;13.90;68.44;97648.97;4928695;29;20060;-69
2022/09/27 01:02:56;;;;;;;4.10;3.20;;;;;;;13.84;68.59;97652.22;4928377;29;20224;-69
2022/09/27 01:05:27;;;;;;;4.10;3.08;;;;;;;13.75;68.65;97649.44;4928569;29;20067;-69
2022/09/27 01:07:55;;;;;;;5.90;3.63;;;;;;;13.77;68.58;97642.16;4925215;29;20060;-69
2022/09/27 01:10:25;;;;;;;4.40;3.72;;;;;;;13.77;68.78;97639.50;4909688;29;20063;-72
2022/09/27 01:13:01;;;;;;;4.55;3.42;;;;;;;13.81;68.78;97624.06;4909596;29;20335;-69
2022/09/27 01:15:37;;;;;;;4.75;3.70;;;;;;;13.87;68.73;97623.47;4909629;29;20053;-69
2022/09/27 01:18:20;;;;;;;7.85;3.88;;;;;;;13.83;68.83;97624.75;4909051;29;20072;-69
2022/09/27 01:21:15;;;;;;;4.32;3.25;;;;;;;13.81;69.03;97616.06;4909213;29;20060;-68
2022/09/27 01:24:00;;;;;;;6.07;4.22;;;;;;;13.75;69.09;97621.97;4910509;29;20196;-68
2022/09/27 01:26:34;;;;;;;;;;;;;;;13.58;69.80;97620.94;4913778;29;20057;-69
2022/09/27 01:29:07;;;;;;;5.70;3.58;;;;;;;13.62;69.34;97619.66;4912929;29;19926;-69
2022/09/27 01:31:41;;;;;;;4.85;3.17;;;;;;;13.61;69.34;97610.00;4912607;29;20060;-70
2022/09/27 01:34:18;;;;;;;4.35;3.90;;;;;;;13.66;69.06;97607.72;4912598;29;20056;-69
2022/09/27 01:36:52;;;;;;;4.10;3.40;;;;;;;13.67;69.14;97603.25;4912652;29;20060;-68
2022/09/27 01:39:33;;;;;;;6.57;4.75;;;;;;;13.74;68.97;97604.34;4912903;29;20067;-69
2022/09/27 01:42:05;;;;;;;7.45;3.97;;;;;;;13.25;68.86;97547.75;4912948;29;20312;-68
2022/09/27 01:44:37;;;;;;;5.07;3.95;;;;;;;13.70;68.96;97597.63;4912503;29;20057;-68
2022/09/27 01:47:14;;;;;;;4.93;3.60;;;;;;;13.71;68.91;97591.31;4912635;29;20061;-68
2022/09/27 01:49:49;;;;;;;6.22;3.28;;;;;;;13.74;68.96;97594.53;4912376;29;20060;-68
2022/09/27 01:52:22;;;;;;;4.38;3.38;;;;;;;13.70;68.90;97587.81;4912342;29;20061;-69
2022/09/27 01:54:55;;;;;;;5.95;3.67;;;;;;;13.60;69.25;97595.00;4912621;29;20056;-68
2022/09/27 01:57:26;;;;;;;5.50;3.53;;;;;;;13.61;68.88;97585.19;4913002;29;20060;-68
2022/09/27 01:59:58;;;;;;;5.22;3.20;;;;;;;13.60;69.18;97583.53;4912131;29;20060;-68
2022/09/27 02:02:31;;;;;;;6.22;3.67;;;;;;;13.66;68.72;97577.59;4912476;29;20324;-68
2022/09/27 02:05:02;;;;;;;4.63;3.35;;;;;;;13.61;68.66;97578.06;4912279;29;20056;-68
2022/09/27 02:07:34;;;;;;;4.07;3.05;;;;;;;13.57;68.82;97586.47;4912554;29;20071;-68
2022/09/27 02:10:07;;;;;;;4.53;3.30;;;;;;;13.63;68.63;97580.56;4912471;29;20067;-68
2022/09/27 02:12:42;;;;;;;5.78;3.40;;;;;;;13.47;69.04;97574.03;4912263;29;20056;-68
2022/09/27 02:15:14;;;;;;;5.75;3.75;;;;;;;13.48;69.37;97578.38;4912290;29;20060;-68
2022/09/27 02:17:47;;;;;;;4.43;3.33;;;;;;;13.48;69.11;97575.72;4911756;29;20075;-68
2022/09/27 02:20:25;;;;;;;4.83;3.53;;;;;;;13.47;69.27;97570.53;4911987;29;20060;-68
2022/09/27 02:22:57;;;;;;;4.25;3.40;;;;;;;13.47;69.21;97573.19;4911942;29;20463;-68
2022/09/27 02:25:28;;;;;;;10.98;4.60;;;;;;;13.50;69.22;97578.22;4911936;29;20057;-68
2022/09/27 02:28:04;;;;;;;5.25;3.63;;;;;;;13.52;68.93;97583.41;4911939;29;20060;-68
2022/09/27 02:30:32;;;;;;;4.65;3.78;;;;;;;13.32;69.27;97559.50;4912062;29;20091;-68
2022/09/27 02:33:01;;;;;;;4.35;3.25;;;;;;;13.36;69.49;97563.53;4911696;29;20065;-68
2022/09/27 02:35:32;;;;;;;4.65;3.88;;;;;;;13.49;69.30;97576.56;4911499;29;20069;-68
2022/09/27 02:38:00;;;;;;;5.18;4.00;;;;;;;13.50;69.10;97572.91;4911559;29;20328;-68
2022/09/27 02:40:31;;;;;;;6.00;4.60;;;;;;;13.47;69.61;97574.03;4911665;29;20097;-68
2022/09/27 02:43:00;;;;;;;4.75;4.15;;;;;;;13.24;69.14;97550.56;4911726;29;20323;-68
2022/09/27 02:45:37;;;;;;;4.95;4.18;;;;;;;13.50;69.22;97564.94;4911523;29;20072;-68
2022/09/27 02:48:16;;;;;;;5.63;4.32;;;;;;;13.44;69.59;97566.34;4911360;29;20056;-68
2022/09/27 02:51:07;;;;;;;5.70;4.95;;;;;;;13.41;69.87;97566.59;4911397;29;20060;-68
2022/09/27 02:53:45;;;;;;;5.25;4.40;;;;;;;13.25;70.05;97570.88;4911253;29;20080;-68
2022/09/27 02:56:22;;;;;;;5.88;4.03;;;;;;;13.25;69.93;97570.88;4911454;29;20067;-68
2022/09/27 02:59:02;;;;;;;4.70;3.88;;;;;;;13.28;69.85;97568.75;4911688;29;20309;-68
2022/09/27 03:01:40;;;;;;;4.95;3.75;;;;;;;13.25;70.18;97571.69;4911303;29;20060;-68
2022/09/27 03:04:15;;;;;;;5.13;3.83;;;;;;;13.31;69.92;97584.44;4910908;29;20071;-68
2022/09/27 03:06:46;;;;;;;4.63;4.05;;;;;;;13.29;69.99;97559.78;4911238;29;20060;-69
2022/09/27 03:09:18;;;;;;;5.85;4.15;;;;;;;13.26;70.01;97559.25;4911136;29;20057;-68
2022/09/27 03:11:46;;;;;;;5.47;3.38;;;;;;;13.26;69.69;97551.25;4911078;29;20063;-68
2022/09/27 03:14:13;;;;;;;4.50;3.92;;;;;;;13.24;69.55;97553.22;4910846;29;20060;-68
2022/09/27 03:16:40;;;;;;;5.20;4.30;;;;;;;13.26;69.95;97554.75;4910680;29;20064;-69
2022/09/27 03:19:09;;;;;;;4.53;3.83;;;;;;;13.27;69.40;97559.09;4911021;29;20061;-68
2022/09/27 03:21:36;;;;;;;4.82;4.00;;;;;;;13.24;69.91;97553.22;4910913;29;20072;-68
2022/09/27 03:24:04;;;;;;;5.70;4.32;;;;;;;13.20;69.58;97546.53;4910750;29;20080;-69
2022/09/27 03:26:31;;;;;;;4.88;3.92;;;;;;;13.21;69.38;97543.72;4910588;29;20196;-68
2022/09/27 03:28:59;;;;;;;4.82;4.30;;;;;;;13.22;69.12;97549.88;4910782;29;20060;-68
2022/09/27 03:31:26;;;;;;;4.78;3.63;;;;;;;13.16;69.81;97546.81;4910495;29;20056;-68
2022/09/27 03:33:53;;;;;;;4.45;3.90;;;;;;;13.08;69.57;97536.06;4910782;29;20068;-69
2022/09/27 03:36:22;;;;;;;4.82;3.85;;;;;;;13.09;70.02;97534.22;4910746;29;20056;-68
2022/09/27 03:38:49;;;;;;;5.00;4.13;;;;;;;13.09;69.42;97529.75;4910693;29;20060;-68
2022/09/27 03:41:17;;;;;;;4.20;3.33;;;;;;;13.07;69.71;97528.22;4910704;29;20060;-68
2022/09/27 03:43:44;;;;;;;5.15;3.85;;;;;;;12.99;69.89;97522.78;4910781;29;20067;-68
2022/09/27 03:46:11;;;;;;;5.10;4.00;;;;;;;12.99;69.80;97512.97;4909945;29;20057;-68
2022/09/27 03:48:40;;;;;;;4.55;3.63;;;;;;;13.04;69.49;97510.72;4910450;29;20067;-68
2022/09/27 03:51:08;;;;;;;6.57;4.60;;;;;;;12.81;69.88;97472.19;4910494;29;20067;-68
2022/09/27 03:53:37;;;;;;;5.20;3.92;;;;;;;12.98;70.08;97506.00;4910503;29;20061;-68
2022/09/27 03:56:04;;;;;;;6.40;4.90;;;;;;;12.98;70.22;97506.00;4910312;29;20216;-68
2022/09/27 03:58:31;;;;;;;6.70;4.75;;;;;;;12.99;70.22;97505.00;4910165;29;20071;-68
2022/09/27 04:00:59;;;;;;;6.32;4.45;;;;;;;13.00;69.97;97500.53;4910555;29;20060;-68
2022/09/27 04:03:26;;;;;;;8.10;4.63;;;;;;;13.00;70.21;97496.03;4910105;29;20056;-68
2022/09/27 04:05:55;;;;;;;5.78;4.40;;;;;;;13.03;69.82;97490.44;4910219;29;20064;-68
2022/09/27 04:08:23;;;;;;;5.32;4.25;;;;;;;13.02;70.00;97487.91;4910254;29;20303;-68
2022/09/27 04:10:51;;;;;;;5.38;4.15;;;;;;;13.02;70.20;97486.09;4910080;29;20320;-69
2022/09/27 04:13:19;;;;;;;7.47;4.75;;;;;;;13.02;69.86;97480.78;4909991;29;20079;-67
2022/09/27 04:15:46;;;;;;;5.35;4.22;;;;;;;13.03;70.10;97482.47;4910324;29;20204;-68
2022/09/27 04:18:14;;;;;;;6.47;4.30;;;;;;;13.05;70.05;97488.47;4909621;29;20064;-69
2022/09/27 04:20:41;;;;;;;6.65;5.35;;;;;;;13.05;70.37;97490.28;4910147;29;20064;-68
2022/09/27 04:23:09;;;;;;;10.27;5.70;;;;;;;13.04;70.28;97478.81;4909831;29;20060;-69
2022/09/27 04:25:36;;;;;;;6.60;5.43;;;;;;;13.05;70.38;97484.97;4909967;29;20061;-68
2022/09/27 04:28:05;;;;;;;6.40;5.43;;;;;;;12.97;70.98;97479.53;4910000;29;20056;-67
2022/09/27 04:30:32;;;;;;;6.63;5.93;;;;;;;12.94;71.07;97482.50;4910195;29;20242;-70
2022/09/27 04:33:00;;;;;;;8.10;5.47;;;;;;;13.02;70.88;97487.91;4909723;29;20056;-69
2022/09/27 04:38:13;;;;;;;6.82;5.25;;;;;;;13.05;70.58;97477.84;4909954;29;20050;-69
2022/09/27 04:40:41;;;;;;;6.80;5.22;;;;;;;13.05;70.93;97480.50;4909706;29;20060;-68
2022/09/27 04:43:09;;;;;;;8.10;5.50;;;;;;;13.09;71.01;97476.56;4910131;29;20056;-69
2022/09/27 04:45:37;;;;;;;8.10;5.68;;;;;;;13.01;71.03;97486.25;4909407;29;20056;-69
2022/09/27 04:48:04;;;;;;;10.80;4.75;;;;;;;13.01;71.19;97479.09;4909901;29;20063;-68
2022/09/27 04:50:32;;;;;;;7.80;5.13;;;;;;;13.05;71.14;97479.66;4909542;29;20071;-69
2022/09/27 04:52:59;;;;;;;7.40;5.40;;;;;;;13.14;70.54;97471.63;4909846;29;20212;-69
2022/09/27 04:55:27;;;;;;;7.00;5.85;;;;;;;13.16;70.36;97471.50;4909830;29;20056;-69
2022/09/27 04:57:54;;;;;;;10.93;8.85;;;;;;;13.15;70.51;97478.63;4911218;29;20060;-69
2022/09/27 05:00:23;;;;;;;9.60;7.72;;;;;;;13.18;71.15;97480.16;4913125;29;20067;-69
2022/09/27 05:02:50;;;;;;;7.13;5.88;;;;;;;12.94;71.34;97478.00;4913702;29;20061;-69
2022/09/27 05:05:17;;;;;;;6.07;4.40;;;;;;;12.92;70.35;97482.63;4913196;29;20056;-69
2022/09/27 05:07:45;;;;;;;5.50;4.18;;;;;;;12.92;70.29;97479.97;4913426;29;20056;-68
2022/09/27 05:10:12;;;;;;;5.03;3.97;;;;;;;12.98;70.20;97473.25;4913489;29;20060;-69
2022/09/27 05:12:40;;;;;;;6.35;4.40;;;;;;;12.94;70.34;97471.84;4912988;29;20212;-69
2022/09/27 05:15:09;;;;;;;5.97;4.10;;;;;;;12.75;70.37;97448.81;4913266;29;20087;-69
2022/09/27 05:17:38;;;;;;;5.30;4.10;;;;;;;12.85;70.60;97465.59;4912247;29;20060;-69
2022/09/27 05:20:06;;;;;;;6.07;3.90;;;;;;;12.86;70.69;97467.25;4913204;29;20060;-69
2022/09/27 05:22:33;;;;;;;4.68;3.72;;;;;;;12.81;70.68;97453.56;4912976;29;20060;-68
2022/09/27 05:25:00;;;;;;;5.88;4.35;;;;;;;12.82;70.78;97455.25;4913032;29;20079;-69
2022/09/27 05:27:29;;;;;;;4.93;4.05;;;;;;;12.86;70.77;97453.97;4912713;29;20091;-69
2022/09/27 05:29:59;;;;;;;5.43;4.13;;;;;;;12.82;70.51;97445.44;4913021;29;20060;-69
2022/09/27 05:32:26;;;;;;;5.68;4.35;;;;;;;12.73;71.18;97454.28;4912798;29;20060;-68
2022/09/27 05:34:55;;;;;;;6.13;5.30;;;;;;;12.60;71.31;97413.91;4913056;29;20063;-70
2022/09/27 05:37:22;;;;;;;7.07;5.50;;;;;;;12.84;70.99;97445.31;4912740;29;20209;-69
2022/09/27 05:39:50;;;;;;;9.60;5.10;;;;;;;12.79;71.59;97442.25;4912751;29;20064;-69
2022/09/27 05:42:18;;;;;;;6.95;5.00;;;;;;;12.83;71.56;97438.31;4912380;29;20060;-69
2022/09/27 05:44:47;;;;;;;5.20;4.60;;;;;;;12.88;71.17;97449.34;4912760;29;20071;-70
2022/09/27 05:47:14;;;;;;;6.43;4.75;;;;;;;12.88;71.36;97441.38;4912592;29;20060;-69
2022/09/27 05:49:42;;;;;;;7.95;4.80;;;;;;;12.91;71.49;97441.06;4912559;29;20056;-69
2022/09/27 05:52:10;;;;;;;6.65;4.93;;;;;;;12.91;71.54;97442.91;4912645;29;20060;-70
2022/09/27 05:54:38;;;;;;;8.38;5.70;;;;;;;12.91;71.86;97432.25;4912663;29;20327;-70
2022/09/27 05:57:06;;;;;;;7.95;5.40;;;;;;;12.97;71.50;97431.69;4912234;29;20067;-70
2022/09/27 05:59:34;;;;;;;10.43;6.75;;;;;;;12.91;72.18;97429.59;4912469;29;20063;-70
2022/09/27 06:02:01;;;;;;;7.13;5.28;;;;;;;12.34;72.27;97355.25;4911993;29;20228;-69
2022/09/27 06:04:29;;;;;;;7.25;5.78;;;;;;;12.91;72.46;97435.75;4912282;29;20056;-70
2022/09/27 06:06:57;;;;;;;7.18;5.82;;;;;;;12.97;72.14;97431.69;4912257;29;20063;-70
2022/09/27 06:09:27;;;;;;;8.85;5.55;;;;;;;13.01;71.95;97431.25;4911391;29;20060;-69
2022/09/27 06:11:54;;;;;;;7.18;5.97;;;;;;;13.04;71.79;97424.78;4912617;29;20060;-69
2022/09/27 06:14:21;;;;;;;7.43;5.13;;;;;;;13.03;72.18;97431.94;4912178;29;20056;-70
2022/09/27 06:16:48;;;;;;;7.60;5.50;;;;;;;12.49;71.92;97345.00;4911811;29;20059;-70
2022/09/27 06:19:16;;;;;;;8.35;6.18;;;;;;;12.86;72.31;97391.97;4911791;29;20052;-71
2022/09/27 06:21:44;;;;;;;9.68;6.00;;;;;;;13.10;71.83;97425.03;4912041;29;20072;-69
2022/09/27 06:24:11;;;;;;;8.05;5.65;;;;;;;12.92;71.84;97389.56;4911773;29;20079;-69
2022/09/27 06:26:40;;;;;;;8.98;5.72;;;;;;;12.91;71.71;97398.53;4911646;29;20060;-70
2022/09/27 06:29:07;;;;;;;8.13;5.95;;;;;;;13.08;72.05;97431.50;4911996;29;20056;-70
2022/09/27 06:31:35;;;;;;;8.48;5.57;;;;;;;13.06;71.97;97428.16;4911540;29;20060;-70
2022/09/27 06:34:02;;;;;;;9.35;6.80;;;;;;;13.04;72.84;97428.28;4911713;29;20061;-70
2022/09/27 06:36:29;;;;;;;10.60;6.63;;;;;;;13.03;72.88;97431.09;4911405;29;20056;-70
2022/09/27 06:39:00;;;;;;;9.02;6.28;;;;;;;13.11;72.15;97425.88;4911749;29;20056;-70
2022/09/27 06:41:27;;;;;;;7.97;5.70;;;;;;;13.15;72.69;97428.09;4911592;29;20328;-70
2022/09/27 06:43:56;;;;;;;6.53;5.68;;;;;;;13.20;72.38;97432.97;4911456;29;20134;-70
2022/09/27 06:46:23;;;;;;;8.52;6.40;;;;;;;13.24;72.27;97430.84;4911288;29;20307;-69
2022/09/27 06:48:51;;;;;;;8.82;5.78;;;;;;;13.25;72.64;97435.19;4911503;29;20061;-70
2022/09/27 06:51:18;;;;;;;11.45;5.85;;;;;;;13.04;72.51;97393.72;4911327;29;20057;-67
2022/09/27 06:53:46;;;;;;;9.20;6.07;;;;;;;13.27;72.41;97426.09;4911285;29;20057;-67
2022/09/27 06:56:13;;;;;;;7.35;5.78;;;;;;;13.31;72.33;97431.94;4910889;29;20061;-67
2022/09/27 07:01:29;;;;;;;8.43;5.97;;;;;;;13.34;72.44;97434.31;4911067;29;20201;-69
2022/09/27 07:03:57;;;;;;;11.63;6.00;;;;;;;13.30;72.68;97439.09;4911306;29;20071;-70
2022/09/27 07:06:25;;;;;;;8.15;6.55;;;;;;;12.94;72.12;97366.34;4910765;29;20079;-70
2022/09/27 07:08:53;;;;;;;8.13;5.50;;;;;;;13.05;72.40;97392.72;4910898;29;20040;-70
2022/09/27 07:11:22;;;;;;;6.43;5.20;;;;;;;12.80;72.20;97340.25;4910469;29;20056;-70
2022/09/27 07:13:50;;;;;;;7.43;5.53;;;;;;;13.39;72.40;97432.03;4911180;29;20052;-70
2022/09/27 07:16:17;;;;;;;7.93;5.82;;;;;;;13.41;72.60;97438.06;4910630;29;20227;-70
2022/09/27 07:18:48;;;;;;;10.40;5.80;;;;;;;13.47;72.10;97432.16;4911100;29;20223;-69
2022/09/27 07:21:15;;;;;;;8.65;6.10;;;;;;;13.42;72.63;97440.59;4909985;29;20075;-69
2022/09/27 07:23:43;;;;;;;15.93;8.18;;;;;;;13.40;72.52;97447.00;4910747;29;20315;-70
2022/09/27 07:26:11;;;;;;;8.88;6.22;;;;;;;13.42;72.20;97445.06;4910716;29;20047;-70
2022/09/27 07:28:40;;;;;;;7.78;6.15;;;;;;;13.46;72.34;97446.47;4910795;29;20135;-70
2022/09/27 07:31:09;;;;;;;7.28;5.82;;;;;;;13.50;72.69;97454.97;4910700;29;20060;-70
2022/09/27 07:33:37;;;;;;;8.95;5.97;;;;;;;13.44;72.87;97454.59;4910686;29;20061;-70
2022/09/27 07:36:09;;;;;;;8.73;6.05;;;;;;;13.48;72.65;97460.44;4910295;29;20061;-70
2022/09/27 07:38:36;;;;;;;6.70;6.00;;;;;;;13.47;72.71;97458.78;4910322;29;20334;-70
2022/09/27 07:41:08;;;;;;;7.97;6.43;;;;;;;13.48;72.52;97460.44;4910624;29;20056;-70
2022/09/27 07:43:35;;;;;;;8.13;6.82;;;;;;;13.42;72.58;97463.69;4910192;29;20067;-70
2022/09/27 07:46:03;;;;;;;6.72;5.63;;;;;;;13.43;72.93;97465.38;4910663;29;20063;-68
2022/09/27 07:48:31;;;;;;;7.80;6.40;;;;;;;13.43;73.03;97471.53;4909970;29;20052;-68
2022/09/27 07:50:59;;;;;;;7.03;5.88;;;;;;;12.72;72.83;97345.47;4909323;29;20261;-69
2022/09/27 07:53:28;;;;;;;8.75;7.07;;;;;;;13.42;73.78;97475.19;4910372;29;20057;-68
2022/09/27 07:55:56;;;;;;;8.32;6.28;;;;;;;13.38;73.45;97471.13;4909870;29;20311;-69
2022/09/27 07:58:23;;;;;;;8.73;6.57;;;;;;;12.89;73.78;97413.81;4910236;29;20064;-69
2022/09/27 08:00:50;;;;;;;7.93;6.50;;;;;;;13.39;73.54;97475.44;4910299;29;20067;-68
2022/09/27 08:03:18;;;;;;;6.63;5.93;;;;;;;13.43;73.72;97478.69;4909948;29;20068;-69
2022/09/27 08:05:47;;;;;;;8.00;6.47;;;;;;;13.37;73.88;97474.75;4910290;29;20060;-68
2022/09/27 08:08:14;;;;;;;7.40;6.70;;;;;;;13.38;74.06;97484.41;4909526;29;20057;-69
2022/09/27 08:10:46;;;;;;;8.77;6.38;;;;;;;13.35;74.39;97489.19;4909602;29;20067;-69
2022/09/27 08:13:16;;;;;;;7.35;6.22;;;;;;;13.34;74.56;97490.19;4909590;29;20079;-69
2022/09/27 08:15:44;;;;;;;9.05;6.65;;;;;;;13.22;75.35;97492.19;4909959;29;20067;-68
2022/09/27 08:18:11;;;;;;;7.65;6.63;;;;;;;13.12;76.01;97507.34;4909738;29;20060;-69
2022/09/27 08:20:38;;;;;;;7.18;5.43;;;;;;;13.04;75.43;97504.56;4909912;29;20071;-68
2022/09/27 08:23:06;;;;;;;6.78;5.88;;;;;;;12.91;75.52;97504.88;4909539;29;20320;-69
2022/09/27 08:25:34;;;;;;;6.38;5.15;;;;;;;12.95;75.46;97505.44;4909916;29;20068;-70
2022/09/27 08:28:04;;;;;;;6.75;4.68;;;;;;;13.00;74.88;97509.34;4909720;29;20063;-69
2022/09/27 08:30:32;;;;;;;5.93;4.50;;;;;;;12.93;75.40;97513.56;4909800;29;20060;-68
2022/09/27 08:33:02;;;;;;;6.10;4.85;;;;;;;13.02;75.75;97523.34;4910202;29;20072;-69
2022/09/27 08:35:32;;;;;;;8.70;4.45;;;;;;;13.02;76.51;97526.00;4913644;29;20061;-68
2022/09/27 08:38:01;;;;;;;5.93;4.22;;;;;;;13.11;75.98;97530.44;4913734;29;20056;-69
2022/09/27 08:40:39;;;;;;;4.47;3.50;;;;;;;12.32;75.81;97431.56;4913318;29;20060;-68
2022/09/27 08:43:17;;;;;;;5.43;3.75;;;;;;;13.09;75.59;97536.88;4913606;29;20056;-68
2022/09/27 08:46:00;;;;;;;4.07;3.28;;;;;;;13.05;76.34;97530.19;4913685;29;20051;-69
2022/09/27 08:48:28;;;;;;;5.63;3.75;;;;;;;13.04;74.88;97545.31;4913559;29;20060;-69
2022/09/27 08:50:57;;;;;;;4.10;3.20;;;;;;;13.07;74.36;97539.69;4913679;29;20294;-68
2022/09/27 08:53:30;;;;;;;4.13;3.28;;;;;;;13.03;74.63;97534.81;4913413;29;20060;-69
2022/09/27 08:56:02;;;;;;;5.97;3.55;;;;;;;13.05;74.56;97536.34;4913623;29;20080;-69
2022/09/27 08:58:34;;;;;;;4.55;3.45;;;;;;;13.00;74.45;97537.75;4913027;29;20056;-69
2022/09/27 09:01:05;;;;;;;3.42;2.70;;;;;;;12.99;74.87;97534.25;4913330;29;20060;-69
2022/09/27 09:03:35;;;;;;;4.38;3.72;;;;;;;13.00;74.55;97529.78;4913335;29;20060;-69
2022/09/27 09:06:14;;;;;;;4.88;3.10;;;;;;;12.66;74.72;97462.97;4912997;29;20057;-69
2022/09/27 09:08:56;;;;;;;5.82;3.58;;;;;;;12.85;74.66;97505.47;4912899;29;20053;-68
2022/09/27 09:14:37;;;;;;;3.22;2.55;;;;;;;12.79;73.54;97517.50;4913052;29;20300;-68
2022/09/27 09:17:16;;;;;;;3.22;2.47;;;;;;;12.79;73.35;97514.00;4912470;29;20068;-69
2022/09/27 09:19:57;;;;;;;2.90;2.17;;;;;;;11.70;73.98;97341.72;4913043;29;20060;-69
2022/09/27 09:22:50;;;;;;;3.42;2.50;;;;;;;12.86;73.75;97520.44;4912697;29;20331;-69
2022/09/27 09:25:28;;;;;;;4.78;3.00;;;;;;;12.77;73.98;97518.63;4912792;29;20060;-69
2022/09/27 09:28:11;;;;;;;3.15;2.38;;;;;;;12.70;74.37;97525.50;4912713;29;20056;-69
2022/09/27 09:30:52;;;;;;;3.65;2.40;;;;;;;12.81;74.09;97522.69;4912536;29;20061;-68
2022/09/27 09:33:25;;;;;;;4.07;2.80;;;;;;;12.69;73.78;97527.31;4913093;29;20060;-68
2022/09/27 09:35:59;;;;;;;4.00;2.80;;;;;;;12.50;74.58;97498.94;4912875;29;20060;-68
2022/09/27 09:38:37;;;;;;;3.63;2.67;;;;;;;12.52;74.90;97509.44;4912714;29;20064;-68
2022/09/27 09:41:15;;;;;;;3.53;2.47;;;;;;;12.75;74.97;97515.28;4912240;29;20056;-69
2022/09/27 09:43:48;;;;;;;3.65;2.78;;;;;;;12.83;74.45;97531.34;4911365;29;20236;-68
2022/09/27 09:46:21;;;;;;;5.20;3.47;;;;;;;12.85;74.99;97516.09;4911919;29;20057;-68
2022/09/27 09:48:55;;;;;;;4.53;3.22;;;;;;;12.81;75.54;97520.84;4912399;29;20056;-69
2022/09/27 09:51:27;;;;;;;3.75;2.85;;;;;;;12.85;74.81;97521.41;4912340;29;20068;-68
2022/09/27 09:53:58;;;;;;;5.30;2.80;;;;;;;12.82;74.44;97524.34;4912383;29;20183;-68
2022/09/27 09:56:30;;;;;;;4.00;2.80;;;;;;;12.87;74.57;97516.78;4912209;29;20060;-68
2022/09/27 09:59:01;;;;;;;4.00;3.10;;;;;;;12.89;74.60;97512.16;4912317;29;20056;-69
2022/09/27 10:01:36;;;;;;;4.43;3.33;;;;;;;12.93;74.34;97508.25;4912165;29;20056;-69
2022/09/27 10:04:03;;;;;;;4.47;3.70;;;;;;;12.97;74.76;97499.00;4912089;29;20060;-69
2022/09/27 10:06:31;;;;;;;4.22;3.58;;;;;;;13.01;74.94;97494.22;4912209;29;20173;-69
2022/09/27 10:08:59;;;;;;;4.97;3.58;;;;;;;13.03;75.11;97492.25;4911951;29;20060;-68
2022/09/27 10:11:32;;;;;;;8.23;4.45;;;;;;;13.06;75.26;97490.16;4912004;29;20060;-69
2022/09/27 10:13:59;;;;;;;4.50;3.58;;;;;;;13.08;75.49;97485.53;4911692;29;20072;-68
2022/09/27 10:16:28;;;;;;;5.35;4.03;;;;;;;13.18;74.27;97479.31;4911606;29;20068;-69
2022/09/27 10:19:02;;;;;;;4.40;3.40;;;;;;;13.25;74.44;97483.06;4911898;29;20063;-69
2022/09/27 10:21:30;;;;;;;;;;;;;;;13.10;74.61;97486.22;4912306;29;20071;-68
2022/09/27 10:24:07;;;;;;;4.90;3.58;;;;;;;13.22;74.54;97494.00;4911466;29;19927;-68
2022/09/27 10:26:36;;;;;;;4.90;3.38;;;;;;;13.21;73.52;97495.84;4911675;29;20060;-68
2022/09/27 10:29:17;;;;;;;3.85;2.78;;;;;;;13.17;72.74;97489.13;4911334;29;20060;-68
2022/09/27 10:31:47;;;;;;;5.35;2.60;;;;;;;13.22;73.03;97496.66;4911619;29;20068;-68
2022/09/27 10:34:25;;;;;;;3.05;2.10;;;;;;;13.27;73.08;97495.25;4911189;29;20056;-68
2022/09/27 10:37:07;;;;;;;3.00;2.28;;;;;;;13.23;72.33;97496.53;4911447;29;20060;-69
2022/09/27 10:39:36;;;;;;;3.53;2.70;;;;;;;13.20;72.15;97490.66;4911503;29;20067;-68
2022/09/27 10:42:19;;;;;;;3.35;2.05;;;;;;;13.27;72.59;97487.28;4911461;29;20060;-68
2022/09/27 10:44:46;;;;;;;3.05;2.15;;;;;;;13.36;73.32;97493.53;4911310;29;20071;-69
2022/09/27 10:47:21;;;;;;;4.43;2.75;;;;;;;13.22;72.69;97454.94;4911400;29;20326;-68
2022/09/27 10:49:51;;;;;;;2.97;1.90;;;;;;;13.50;72.87;97485.09;4911057;29;20061;-69
2022/09/27 10:52:20;;;;;;;3.00;2.20;;;;;;;13.55;72.42;97484.66;4911160;29;20060;-68
2022/09/27 10:54:56;;;;;;;3.50;2.30;;;;;;;13.57;71.75;97488.84;4911277;29;20060;-69
2022/09/27 10:57:27;;;;;;;2.88;2.13;;;;;;;13.58;71.91;97493.16;4911270;29;20250;-68
2022/09/27 10:59:57;;;;;;;3.30;2.58;;;;;;;13.43;71.52;97460.06;4911343;29;20067;-69
2022/09/27 11:02:31;;;;;;;3.03;2.10;;;;;;;13.63;71.53;97493.56;4911173;29;20314;-69
2022/09/27 11:05:12;;;;;;;4.28;2.42;;;;;;;13.66;70.96;97487.94;4911175;29;20063;-68
2022/09/27 11:07:48;;;;;;;3.35;2.30;;;;;;;13.75;71.39;97491.53;4911215;29;20067;-69
2022/09/27 11:10:30;;;;;;;3.42;2.10;;;;;;;13.67;69.64;97488.78;4910950;29;20240;-68
2022/09/27 11:13:11;;;;;;;4.22;2.17;;;;;;;13.68;70.43;97477.97;4910786;29;20207;-68
2022/09/27 11:15:54;;;;;;;3.60;2.40;;;;;;;13.70;71.47;97467.19;4910849;29;20063;-69
2022/09/27 11:18:31;;;;;;;3.45;2.50;;;;;;;13.71;70.74;97474.19;4892356;29;20076;-68
2022/09/27 11:21:12;;;;;;;3.85;2.42;;;;;;;13.73;70.61;97470.38;4892078;29;20060;-69
2022/09/27 11:23:51;;;;;;;4.28;2.70;;;;;;;13.75;70.14;97467.56;4892420;29;20061;-69
2022/09/27 11:26:33;;;;;;;3.05;2.13;;;;;;;13.72;69.73;97460.72;4892399;29;20061;-70
2022/09/27 11:29:15;;;;;;;4.53;2.50;;;;;;;13.74;69.97;97471.22;4892342;29;20056;-69
2022/09/27 11:31:52;;;;;;;3.20;2.20;;;;;;;13.52;70.62;97440.53;4892261;29;20057;-70
2022/09/27 11:34:31;;;;;;;2.80;1.80;;;;;;;13.66;68.83;97469.31;4892240;29;20355;-69
2022/09/27 11:37:16;;;;;;;3.80;2.65;;;;;;;13.64;68.49;97459.78;4892362;29;20317;-69
2022/09/27 11:39:55;;;;;;;3.03;2.20;;;;;;;13.48;66.94;97457.78;4891956;29;20068;-69
2022/09/27 11:42:49;;;;;;;6.13;2.78;;;;;;;13.53;67.77;97473.31;4891822;29;20206;-69
2022/09/27 11:45:26;;;;;;;4.40;2.80;;;;;;;13.60;68.36;97474.38;4892125;29;20061;-70
2022/09/27 11:48:05;;;;;;;2.97;1.88;;;;;;;13.51;67.32;97481.44;4892070;29;20061;-69
2022/09/27 11:51:12;;;;;;;4.85;2.50;;;;;;;13.52;67.85;97477.78;4891948;29;20057;-69
2022/09/27 11:54:06;;;;;;;3.75;2.42;;;;;;;13.58;68.37;97471.88;4852940;29;20064;-69
2022/09/27 11:56:41;;;;;;;5.22;2.70;;;;;;;13.57;68.72;97466.69;4852146;29;20069;-69
2022/09/27 11:59:36;;;;;;;3.78;2.30;;;;;;;13.42;68.46;97477.00;4880874;29;20064;-69
2022/09/27 12:02:18;;;;;;;3.25;2.25;;;;;;;13.34;68.51;97479.53;4891811;29;20071;-69